Schofield, Wisconsin
Current Conditions -  °F | °C
As of 8:32 AM on Friday 31 Oct 2014 (Local Time) from KAUW Reporting Station
Overcast Overcast  
Wind Chill: 20°   Ceiling: 2800
Heat Index: 30°   Visibility: 10mi
Dew Point: 21°   Wind: 14mph
Humidity: 69%   Direction: 10°N
Pressure: 30.32"   Gusts: 24mph
Location:  44.91°N, 89.6°W
Report Text: KAUW 311332Z AUTO 01012G21KT 10SM BKN028 OVC036 M01/M06 A3032 RMK AO2 T10111061
Loading
Personal Weather Stations






























Interactive Weather Map
Tropical Storm Tracking
New forecast layout! Learn more

10-Day Weather Forecast

Advertisements
Track Severe Weather on mobile